Kyokuho Maru No.15 — JI3715 — position and weather

sailwx.info

Track history (hours):
 
Tides and Currents Weather Stations Pressure Air Temp Water Temp Dewpoint Dewpoint Depression Visibility Wind Speed Wind Dir Waves Ship Positions

Kyokuho Maru No.15

Last reported at 2016-Feb-02 05:13 UTC. Time now 2016-Feb-14 12:43 UTC.
Position N 34°37' E 134°56'.
Warning: this ship's position is 12 days out of date.

Length 63 m; draft 4.2 m.

Type: Tanker. MMSI: 431301714.

Date/timePositionNaut miles runAvg speedWind from/ knotsBaromVisibWave heightAir tempDewpointWater temp
2016-Feb-02 05:13N 34°37' E 134°56'710.9
2016-Feb-02 04:33N 34°36' E 135°05'1010.4
2016-Feb-02 03:33N 34°39' E 135°17'1 0.7
2016-Feb-02 02:33N 34°40' E 135°18'0 0.0
2016-Feb-02 01:33N 34°40' E 135°18'0 0.0
2016-Feb-02 00:33N 34°40' E 135°18'0 0.0
2016-Feb-01 23:33N 34°40' E 135°18'0 0.1
2016-Feb-01 22:33N 34°40' E 135°18'2 1.7
2016-Feb-01 21:33N 34°38' E 135°19'9 8.0
2016-Feb-01 20:29N 34°31' E 135°24'0 0.0
2016-Feb-01 19:28N 34°31' E 135°24'0 0.0
2016-Feb-01 18:31N 34°31' E 135°24'0 0.0
2016-Feb-01 17:33N 34°31' E 135°24'0 0.0
2016-Feb-01 16:33N 34°31' E 135°24'0 0.0
2016-Feb-01 15:33N 34°31' E 135°24'0 0.0
2016-Feb-01 14:32N 34°31' E 135°24'0 0.0
2016-Feb-01 13:31N 34°31' E 135°24'0 0.0
2016-Feb-01 12:32N 34°31' E 135°24'0 0.0
2016-Feb-01 11:28N 34°31' E 135°24'0 0.0
2016-Feb-01 10:30N 34°31' E 135°24'0 0.0
2016-Feb-01 09:23N 34°31' E 135°24'0 0.0
2016-Feb-01 08:23N 34°31' E 135°24'7 8.8
2016-Feb-01 07:33N 34°38' E 135°24'2 2.5
2016-Feb-01 06:33N 34°40' E 135°25'0 0.0
2016-Feb-01 05:33N 34°40' E 135°25'0 0.0
2016-Feb-01 04:33N 34°40' E 135°25'0 0.0
2016-Feb-01 03:33N 34°40' E 135°25'0 0.0
2016-Feb-01 02:33N 34°40' E 135°25'3 1.6
2016-Feb-01 00:33N 34°38' E 135°27'7 7.0
2016-Jan-31 23:32N 34°31' E 135°24'0 0.1
2016-Jan-31 22:33N 34°31' E 135°24'0 0.0
2016-Jan-31 21:33N 34°31' E 135°24'0 0.0
2016-Jan-31 20:33N 34°31' E 135°24'0 0.0
2016-Jan-31 19:33N 34°31' E 135°24'0 0.0
2016-Jan-31 18:32N 34°31' E 135°24'0 0.0
2016-Jan-31 17:33N 34°31' E 135°24'0 0.0
2016-Jan-31 16:33N 34°31' E 135°24'0 0.0
2016-Jan-31 15:33N 34°31' E 135°24'0 0.0
2016-Jan-31 14:33N 34°31' E 135°24'0 0.0
2016-Jan-31 13:33N 34°31' E 135°24'0 0.0
2016-Jan-31 12:33N 34°31' E 135°24'0 0.0
2016-Jan-31 11:33N 34°31' E 135°24'0 0.0
2016-Jan-31 10:33N 34°31' E 135°24'0 0.0
2016-Jan-31 09:33N 34°31' E 135°24'0 0.0
2016-Jan-31 08:33N 34°31' E 135°24'0 0.0
2016-Jan-31 07:33N 34°31' E 135°24'0 0.0
2016-Jan-31 06:33N 34°31' E 135°24'0 0.0
2016-Jan-31 05:33N 34°31' E 135°24'0 0.0
2016-Jan-31 04:33N 34°31' E 135°24'0 0.0
2016-Jan-31 03:33N 34°31' E 135°24'0 0.0
2016-Jan-31 02:33N 34°31' E 135°24'0 0.0
2016-Jan-31 01:33N 34°31' E 135°24'0 0.0
2016-Jan-31 00:33N 34°31' E 135°24'0 0.0
2016-Jan-30 23:33N 34°31' E 135°24'0 0.0
2016-Jan-30 22:33N 34°31' E 135°24'0 0.0
2016-Jan-30 21:33N 34°31' E 135°24'0 0.0
2016-Jan-30 20:33N 34°31' E 135°24'0 0.0
2016-Jan-30 19:33N 34°31' E 135°24'0 0.0
2016-Jan-30 18:33N 34°31' E 135°24'0 0.0
2016-Jan-30 17:33N 34°31' E 135°24'0 0.0
2016-Jan-30 16:33N 34°31' E 135°24'0 0.0
2016-Jan-30 15:33N 34°31' E 135°24'0 0.0
2016-Jan-30 14:33N 34°31' E 135°24'0 0.0
2016-Jan-30 13:33N 34°31' E 135°24'0 0.0
2016-Jan-30 12:33N 34°31' E 135°24'0 0.0
2016-Jan-30 11:33N 34°31' E 135°24'0 0.0
2016-Jan-30 10:33N 34°31' E 135°24'0 0.1
2016-Jan-30 09:33N 34°31' E 135°24'8 8.0
2016-Jan-30 08:33N 34°33' E 135°15'1211.9
2016-Jan-30 07:33N 34°37' E 135°01'3 0.1
2016-Jan-28 07:30N 34°37' E 134°57'9 9.2
2016-Jan-28 06:33N 34°36' E 135°08'1211.9
2016-Jan-28 05:33N 34°39' E 135°21'3 3.0
2016-Jan-28 04:33N 34°40' E 135°25'2 2.4
2016-Jan-28 03:34N 34°40' E 135°22'3 2.6
2016-Jan-28 02:33N 34°40' E 135°19'4 1.5
2016-Jan-28 00:11N 34°42' E 135°15'0 0.0
2016-Jan-27 23:33N 34°42' E 135°15'1 1.1
2016-Jan-27 22:33N 34°41' E 135°15'5 4.4
2016-Jan-27 21:30N 34°37' E 135°16'0 0.0
2016-Jan-27 20:34N 34°37' E 135°16'0 0.0
2016-Jan-27 19:33N 34°37' E 135°16'0 0.0
2016-Jan-27 18:33N 34°37' E 135°16'0 0.0
2016-Jan-27 17:34N 34°37' E 135°16'0 0.0
2016-Jan-27 16:33N 34°37' E 135°16'0 0.0
2016-Jan-27 15:33N 34°37' E 135°16'0 0.1
2016-Jan-27 14:34N 34°37' E 135°16'9 9.4
2016-Jan-27 13:34N 34°28' E 135°11'1411.9
2016-Jan-27 12:23N 34°16' E 135°03'238 8.0
2016-Jan-26 06:33N 35°11' E 139°45'10 9.7
2016-Jan-26 05:34N 35°20' E 139°42'1010.2
2016-Jan-26 04:34N 35°29' E 139°48'3 3.0
2016-Jan-26 03:32N 35°32' E 139°45'0 0.0
2016-Jan-26 02:29N 35°32' E 139°45'0 0.0
2016-Jan-26 01:32N 35°32' E 139°45'0 0.0
2016-Jan-26 00:32N 35°32' E 139°45'0 0.0
2016-Jan-25 23:32N 35°32' E 139°45'1 0.8
2016-Jan-25 22:33N 35°31' E 139°46'1211.3
2016-Jan-25 21:32N 35°34' E 139°60'6 5.9
2016-Jan-25 20:33N 35°36' E 140°06'0 0.0
2016-Jan-25 19:33N 35°36' E 140°06'0 0.0
2016-Jan-25 18:33N 35°36' E 140°06'0 0.0
2016-Jan-25 17:33N 35°36' E 140°06'0 0.0
2016-Jan-25 16:33N 35°36' E 140°06'0 0.0
2016-Jan-25 15:33N 35°36' E 140°06'0 0.0
2016-Jan-25 14:33N 35°36' E 140°06'0 0.0
2016-Jan-25 13:33N 35°36' E 140°06'0 0.0
2016-Jan-25 12:33N 35°36' E 140°06'0 0.0
2016-Jan-25 11:33N 35°36' E 140°06'0 0.0
2016-Jan-25 10:33N 35°36' E 140°06'0 0.0
2016-Jan-25 09:33N 35°36' E 140°06'0 0.0
2016-Jan-25 08:33N 35°36' E 140°06'0 0.0
2016-Jan-25 07:33N 35°36' E 140°06'0 0.0
2016-Jan-25 06:33N 35°36' E 140°06'1010.0
2016-Jan-25 05:33N 35°30' E 139°57'3 3.0
2016-Jan-25 04:33N 35°27' E 139°58'1 0.5
2016-Jan-25 03:34N 35°27' E 139°58'4 4.0
2016-Jan-25 02:33N 35°29' E 139°53'7 7.2
2016-Jan-25 01:33N 35°32' E 139°45'0 0.0
2016-Jan-25 00:33N 35°32' E 139°45'0 0.0
2016-Jan-24 23:33N 35°32' E 139°45'1 1.0
2016-Jan-24 22:33N 35°31' E 139°46'3 3.0
2016-Jan-24 21:33N 35°28' E 139°45'4 4.5
2016-Jan-24 20:33N 35°27' E 139°40'0 0.0
2016-Jan-24 19:33N 35°27' E 139°40'0 0.0
2016-Jan-24 18:33N 35°27' E 139°40'0 0.0
2016-Jan-24 17:33N 35°27' E 139°40'0 0.0
2016-Jan-24 16:33N 35°27' E 139°40'0 0.0
2016-Jan-24 15:33N 35°27' E 139°40'0 0.0
2016-Jan-24 14:30N 35°27' E 139°40'0 0.0
2016-Jan-24 13:30N 35°27' E 139°40'0 0.0
2016-Jan-24 12:30N 35°27' E 139°40'0 0.0
2016-Jan-24 11:33N 35°27' E 139°40'0 0.0
2016-Jan-24 10:33N 35°27' E 139°40'0 0.0
2016-Jan-24 09:33N 35°27' E 139°40'0 0.0
2016-Jan-24 08:33N 35°27' E 139°40'0 0.0
2016-Jan-24 07:33N 35°27' E 139°40'0 0.0
2016-Jan-24 06:33N 35°27' E 139°40'0 0.0
2016-Jan-24 05:33N 35°27' E 139°40'0 0.0
2016-Jan-24 04:33N 35°27' E 139°40'0 0.0
2016-Jan-24 03:30N 35°27' E 139°40'0 0.0
2016-Jan-24 02:33N 35°27' E 139°40'0 0.0
2016-Jan-24 01:30N 35°27' E 139°40'0 0.0
2016-Jan-24 00:33N 35°27' E 139°40'0 0.0
2016-Jan-23 23:33N 35°27' E 139°40'0 0.0
2016-Jan-23 22:33N 35°27' E 139°40'0 0.0
2016-Jan-23 21:33N 35°27' E 139°40'0 0.0
2016-Jan-23 20:33N 35°27' E 139°40'0 0.0
2016-Jan-23 19:33N 35°27' E 139°40'0 0.0
2016-Jan-23 18:33N 35°27' E 139°40'0 0.0
2016-Jan-23 17:33N 35°27' E 139°40'0 0.0
2016-Jan-23 16:33N 35°27' E 139°40'0 0.0
2016-Jan-23 15:33N 35°27' E 139°40'0 0.0
2016-Jan-23 14:33N 35°27' E 139°40'0 0.0
2016-Jan-23 13:33N 35°27' E 139°40'0 0.0
2016-Jan-23 12:33N 35°27' E 139°40'0 0.0
2016-Jan-23 11:33N 35°27' E 139°40'0 0.0
2016-Jan-23 10:33N 35°27' E 139°40'0 0.0
2016-Jan-23 09:33N 35°27' E 139°40'0 0.0
2016-Jan-23 08:33N 35°27' E 139°40'0 0.0
2016-Jan-23 07:33N 35°27' E 139°40'8 7.6
2016-Jan-23 06:33N 35°29' E 139°49'8 8.0
2016-Jan-23 05:33N 35°35' E 139°55'  
Track history (hours):
 
Tides and Currents Weather Stations Pressure Air Temp Water Temp Dewpoint Dewpoint Depression Visibility Wind Speed Wind Dir Waves Ship Positions

Kyokuho Maru No.15

Last reported at 2016-Feb-02 05:13 UTC. Time now 2016-Feb-14 12:43 UTC.
Position N 34°37' E 134°56'.
Warning: this ship's position is 12 days out of date.

Length 63 m; draft 4.2 m.

Type: Tanker. MMSI: 431301714.

Date/timePositionNaut miles runAvg speedWind from/ knotsBaromVisibWave heightAir tempDewpointWater temp
2016-Feb-02 05:13N 34°37' E 134°56'710.9
2016-Feb-02 04:33N 34°36' E 135°05'1010.4
2016-Feb-02 03:33N 34°39' E 135°17'1 0.7
2016-Feb-02 02:33N 34°40' E 135°18'0 0.0
2016-Feb-02 01:33N 34°40' E 135°18'0 0.0
2016-Feb-02 00:33N 34°40' E 135°18'0 0.0
2016-Feb-01 23:33N 34°40' E 135°18'0 0.1
2016-Feb-01 22:33N 34°40' E 135°18'2 1.7
2016-Feb-01 21:33N 34°38' E 135°19'9 8.0
2016-Feb-01 20:29N 34°31' E 135°24'0 0.0
2016-Feb-01 19:28N 34°31' E 135°24'0 0.0
2016-Feb-01 18:31N 34°31' E 135°24'0 0.0
2016-Feb-01 17:33N 34°31' E 135°24'0 0.0
2016-Feb-01 16:33N 34°31' E 135°24'0 0.0
2016-Feb-01 15:33N 34°31' E 135°24'0 0.0
2016-Feb-01 14:32N 34°31' E 135°24'0 0.0
2016-Feb-01 13:31N 34°31' E 135°24'0 0.0
2016-Feb-01 12:32N 34°31' E 135°24'0 0.0
2016-Feb-01 11:28N 34°31' E 135°24'0 0.0
2016-Feb-01 10:30N 34°31' E 135°24'0 0.0
2016-Feb-01 09:23N 34°31' E 135°24'0 0.0
2016-Feb-01 08:23N 34°31' E 135°24'7 8.8
2016-Feb-01 07:33N 34°38' E 135°24'2 2.5
2016-Feb-01 06:33N 34°40' E 135°25'0 0.0
2016-Feb-01 05:33N 34°40' E 135°25'0 0.0
2016-Feb-01 04:33N 34°40' E 135°25'0 0.0
2016-Feb-01 03:33N 34°40' E 135°25'0 0.0
2016-Feb-01 02:33N 34°40' E 135°25'3 1.6
2016-Feb-01 00:33N 34°38' E 135°27'7 7.0
2016-Jan-31 23:32N 34°31' E 135°24'0 0.1
2016-Jan-31 22:33N 34°31' E 135°24'0 0.0
2016-Jan-31 21:33N 34°31' E 135°24'0 0.0
2016-Jan-31 20:33N 34°31' E 135°24'0 0.0
2016-Jan-31 19:33N 34°31' E 135°24'0 0.0
2016-Jan-31 18:32N 34°31' E 135°24'0 0.0
2016-Jan-31 17:33N 34°31' E 135°24'0 0.0
2016-Jan-31 16:33N 34°31' E 135°24'0 0.0
2016-Jan-31 15:33N 34°31' E 135°24'0 0.0
2016-Jan-31 14:33N 34°31' E 135°24'0 0.0
2016-Jan-31 13:33N 34°31' E 135°24'0 0.0
2016-Jan-31 12:33N 34°31' E 135°24'0 0.0
2016-Jan-31 11:33N 34°31' E 135°24'0 0.0
2016-Jan-31 10:33N 34°31' E 135°24'0 0.0
2016-Jan-31 09:33N 34°31' E 135°24'0 0.0
2016-Jan-31 08:33N 34°31' E 135°24'0 0.0
2016-Jan-31 07:33N 34°31' E 135°24'0 0.0
2016-Jan-31 06:33N 34°31' E 135°24'0 0.0
2016-Jan-31 05:33N 34°31' E 135°24'0 0.0
2016-Jan-31 04:33N 34°31' E 135°24'0 0.0
2016-Jan-31 03:33N 34°31' E 135°24'0 0.0
2016-Jan-31 02:33N 34°31' E 135°24'0 0.0
2016-Jan-31 01:33N 34°31' E 135°24'0 0.0
2016-Jan-31 00:33N 34°31' E 135°24'0 0.0
2016-Jan-30 23:33N 34°31' E 135°24'0 0.0
2016-Jan-30 22:33N 34°31' E 135°24'0 0.0
2016-Jan-30 21:33N 34°31' E 135°24'0 0.0
2016-Jan-30 20:33N 34°31' E 135°24'0 0.0
2016-Jan-30 19:33N 34°31' E 135°24'0 0.0
2016-Jan-30 18:33N 34°31' E 135°24'0 0.0
2016-Jan-30 17:33N 34°31' E 135°24'0 0.0
2016-Jan-30 16:33N 34°31' E 135°24'0 0.0
2016-Jan-30 15:33N 34°31' E 135°24'0 0.0
2016-Jan-30 14:33N 34°31' E 135°24'0 0.0
2016-Jan-30 13:33N 34°31' E 135°24'0 0.0
2016-Jan-30 12:33N 34°31' E 135°24'0 0.0
2016-Jan-30 11:33N 34°31' E 135°24'0 0.0
2016-Jan-30 10:33N 34°31' E 135°24'0 0.1
2016-Jan-30 09:33N 34°31' E 135°24'8 8.0
2016-Jan-30 08:33N 34°33' E 135°15'1211.9
2016-Jan-30 07:33N 34°37' E 135°01'3 0.1
2016-Jan-28 07:30N 34°37' E 134°57'9 9.2
2016-Jan-28 06:33N 34°36' E 135°08'1211.9
2016-Jan-28 05:33N 34°39' E 135°21'3 3.0
2016-Jan-28 04:33N 34°40' E 135°25'2 2.4
2016-Jan-28 03:34N 34°40' E 135°22'3 2.6
2016-Jan-28 02:33N 34°40' E 135°19'4 1.5
2016-Jan-28 00:11N 34°42' E 135°15'0 0.0
2016-Jan-27 23:33N 34°42' E 135°15'1 1.1
2016-Jan-27 22:33N 34°41' E 135°15'5 4.4
2016-Jan-27 21:30N 34°37' E 135°16'0 0.0
2016-Jan-27 20:34N 34°37' E 135°16'0 0.0
2016-Jan-27 19:33N 34°37' E 135°16'0 0.0
2016-Jan-27 18:33N 34°37' E 135°16'0 0.0
2016-Jan-27 17:34N 34°37' E 135°16'0 0.0
2016-Jan-27 16:33N 34°37' E 135°16'0 0.0
2016-Jan-27 15:33N 34°37' E 135°16'0 0.1
2016-Jan-27 14:34N 34°37' E 135°16'9 9.4
2016-Jan-27 13:34N 34°28' E 135°11'1411.9
2016-Jan-27 12:23N 34°16' E 135°03'238 8.0
2016-Jan-26 06:33N 35°11' E 139°45'10 9.7
2016-Jan-26 05:34N 35°20' E 139°42'1010.2
2016-Jan-26 04:34N 35°29' E 139°48'3 3.0
2016-Jan-26 03:32N 35°32' E 139°45'0 0.0
2016-Jan-26 02:29N 35°32' E 139°45'0 0.0
2016-Jan-26 01:32N 35°32' E 139°45'0 0.0
2016-Jan-26 00:32N 35°32' E 139°45'0 0.0
2016-Jan-25 23:32N 35°32' E 139°45'1 0.8
2016-Jan-25 22:33N 35°31' E 139°46'1211.3
2016-Jan-25 21:32N 35°34' E 139°60'6 5.9
2016-Jan-25 20:33N 35°36' E 140°06'0 0.0
2016-Jan-25 19:33N 35°36' E 140°06'0 0.0
2016-Jan-25 18:33N 35°36' E 140°06'0 0.0
2016-Jan-25 17:33N 35°36' E 140°06'0 0.0
2016-Jan-25 16:33N 35°36' E 140°06'0 0.0
2016-Jan-25 15:33N 35°36' E 140°06'0 0.0
2016-Jan-25 14:33N 35°36' E 140°06'0 0.0
2016-Jan-25 13:33N 35°36' E 140°06'0 0.0
2016-Jan-25 12:33N 35°36' E 140°06'0 0.0
2016-Jan-25 11:33N 35°36' E 140°06'0 0.0
2016-Jan-25 10:33N 35°36' E 140°06'0 0.0
2016-Jan-25 09:33N 35°36' E 140°06'0 0.0
2016-Jan-25 08:33N 35°36' E 140°06'0 0.0
2016-Jan-25 07:33N 35°36' E 140°06'0 0.0
2016-Jan-25 06:33N 35°36' E 140°06'1010.0
2016-Jan-25 05:33N 35°30' E 139°57'3 3.0
2016-Jan-25 04:33N 35°27' E 139°58'1 0.5
2016-Jan-25 03:34N 35°27' E 139°58'4 4.0
2016-Jan-25 02:33N 35°29' E 139°53'7 7.2
2016-Jan-25 01:33N 35°32' E 139°45'0 0.0
2016-Jan-25 00:33N 35°32' E 139°45'0 0.0
2016-Jan-24 23:33N 35°32' E 139°45'1 1.0
2016-Jan-24 22:33N 35°31' E 139°46'3 3.0
2016-Jan-24 21:33N 35°28' E 139°45'4 4.5
2016-Jan-24 20:33N 35°27' E 139°40'0 0.0
2016-Jan-24 19:33N 35°27' E 139°40'0 0.0
2016-Jan-24 18:33N 35°27' E 139°40'0 0.0
2016-Jan-24 17:33N 35°27' E 139°40'0 0.0
2016-Jan-24 16:33N 35°27' E 139°40'0 0.0
2016-Jan-24 15:33N 35°27' E 139°40'0 0.0
2016-Jan-24 14:30N 35°27' E 139°40'0 0.0
2016-Jan-24 13:30N 35°27' E 139°40'0 0.0
2016-Jan-24 12:30N 35°27' E 139°40'0 0.0
2016-Jan-24 11:33N 35°27' E 139°40'0 0.0
2016-Jan-24 10:33N 35°27' E 139°40'0 0.0
2016-Jan-24 09:33N 35°27' E 139°40'0 0.0
2016-Jan-24 08:33N 35°27' E 139°40'0 0.0
2016-Jan-24 07:33N 35°27' E 139°40'0 0.0
2016-Jan-24 06:33N 35°27' E 139°40'0 0.0
2016-Jan-24 05:33N 35°27' E 139°40'0 0.0
2016-Jan-24 04:33N 35°27' E 139°40'0 0.0
2016-Jan-24 03:30N 35°27' E 139°40'0 0.0
2016-Jan-24 02:33N 35°27' E 139°40'0 0.0
2016-Jan-24 01:30N 35°27' E 139°40'0 0.0
2016-Jan-24 00:33N 35°27' E 139°40'0 0.0
2016-Jan-23 23:33N 35°27' E 139°40'0 0.0
2016-Jan-23 22:33N 35°27' E 139°40'0 0.0
2016-Jan-23 21:33N 35°27' E 139°40'0 0.0
2016-Jan-23 20:33N 35°27' E 139°40'0 0.0
2016-Jan-23 19:33N 35°27' E 139°40'0 0.0
2016-Jan-23 18:33N 35°27' E 139°40'0 0.0
2016-Jan-23 17:33N 35°27' E 139°40'0 0.0
2016-Jan-23 16:33N 35°27' E 139°40'0 0.0
2016-Jan-23 15:33N 35°27' E 139°40'0 0.0
2016-Jan-23 14:33N 35°27' E 139°40'0 0.0
2016-Jan-23 13:33N 35°27' E 139°40'0 0.0
2016-Jan-23 12:33N 35°27' E 139°40'0 0.0
2016-Jan-23 11:33N 35°27' E 139°40'0 0.0
2016-Jan-23 10:33N 35°27' E 139°40'0 0.0
2016-Jan-23 09:33N 35°27' E 139°40'0 0.0
2016-Jan-23 08:33N 35°27' E 139°40'0 0.0
2016-Jan-23 07:33N 35°27' E 139°40'8 7.6
2016-Jan-23 06:33N 35°29' E 139°49'8 8.0
2016-Jan-23 05:33N 35°35' E 139°55'  

Dump ship's entire track history